createdAt,value
2022-12-17T00:00:32.688Z,47.90
2022-12-17T00:03:19.943Z,41.13
2022-12-17T00:06:06.570Z,42.08
2022-12-17T00:08:52.911Z,43.08
2022-12-17T00:11:39.136Z,40.72
2022-12-17T00:14:26.042Z,42.40
2022-12-17T00:17:12.516Z,40.65
2022-12-17T00:19:58.762Z,37.92
2022-12-17T00:22:45.023Z,40.00
2022-12-17T00:25:31.811Z,36.90
2022-12-17T00:28:18.246Z,38.75
2022-12-17T00:31:10.401Z,36.90
2022-12-17T00:33:56.409Z,41.25
2022-12-17T00:36:43.171Z,40.75
2022-12-17T00:39:29.297Z,45.97
2022-12-17T00:42:15.681Z,44.22
2022-12-17T00:45:02.087Z,47.95
2022-12-17T00:47:48.166Z,47.55
2022-12-17T00:50:35.151Z,45.97
2022-12-17T00:53:22.053Z,46.10
2022-12-17T00:56:07.892Z,46.08
2022-12-17T00:58:55.798Z,46.28
2022-12-17T01:01:42.352Z,45.45
2022-12-17T01:04:28.527Z,45.40
2022-12-17T01:07:15.272Z,42.28
2022-12-17T01:10:21.258Z,45.10
2022-12-17T01:13:07.134Z,47.40
2022-12-17T01:15:53.799Z,46.25
2022-12-17T01:18:42.841Z,43.80
2022-12-17T01:21:28.923Z,42.97
2022-12-17T01:24:15.548Z,39.50
2022-12-17T01:27:02.267Z,41.53
2022-12-17T01:29:49.025Z,42.42
2022-12-17T01:32:34.988Z,44.75
2022-12-17T01:35:21.172Z,46.33
2022-12-17T01:38:11.991Z,43.25
2022-12-17T01:40:58.861Z,39.88
2022-12-17T01:43:56.687Z,44.22
2022-12-17T01:46:46.229Z,42.88
2022-12-17T01:49:34.015Z,39.92
2022-12-17T01:52:21.815Z,43.70
2022-12-17T01:55:08.694Z,38.03
2022-12-17T01:57:55.814Z,40.05
2022-12-17T02:00:42.550Z,38.70
2022-12-17T02:03:34.007Z,38.85
2022-12-17T02:06:25.362Z,35.65
2022-12-17T02:09:36.304Z,37.35
2022-12-17T02:12:32.004Z,39.15
2022-12-17T02:15:29.671Z,33.38
2022-12-17T02:18:21.246Z,37.92
2022-12-17T02:21:12.789Z,36.63
2022-12-17T02:24:05.391Z,32.85
2022-12-17T02:27:04.401Z,32.55
2022-12-17T02:29:57.279Z,31.85
2022-12-17T02:32:44.797Z,33.10
2022-12-17T02:35:38.937Z,32.03
2022-12-17T02:38:44.782Z,32.95
2022-12-17T02:41:37.889Z,35.70
2022-12-17T02:44:27.504Z,33.72
2022-12-17T02:47:16.391Z,32.17
2022-12-17T02:50:08.246Z,32.67
2022-12-17T02:53:03.398Z,31.52
2022-12-17T02:55:50.389Z,32.75
2022-12-17T02:58:36.856Z,36.85
2022-12-17T03:01:23.694Z,37.15
2022-12-17T03:04:10.406Z,37.70
2022-12-17T03:06:57.271Z,38.53
2022-12-17T03:09:43.621Z,39.08
2022-12-17T03:12:29.598Z,44.70
2022-12-17T03:15:16.194Z,39.45
2022-12-17T03:18:02.608Z,40.25
2022-12-17T03:20:49.064Z,38.65
2022-12-17T03:23:36.012Z,44.78
2022-12-17T03:26:22.865Z,36.97
2022-12-17T03:29:09.230Z,39.10
2022-12-17T03:31:56.010Z,42.30
2022-12-17T03:34:42.739Z,41.13
2022-12-17T03:37:29.532Z,38.88
2022-12-17T03:40:29.273Z,36.75
2022-12-17T03:43:15.531Z,37.08
2022-12-17T03:46:02.134Z,35.70
2022-12-17T03:48:48.292Z,34.17
2022-12-17T03:51:35.022Z,31.98
2022-12-17T03:54:23.491Z,30.60
2022-12-17T03:57:15.803Z,28.05
2022-12-17T04:00:02.598Z,29.70
2022-12-17T04:02:58.968Z,29.85
2022-12-17T04:05:45.132Z,30.77
2022-12-17T04:08:31.041Z,34.60
2022-12-17T04:11:18.156Z,35.17
2022-12-17T04:14:04.631Z,33.63
2022-12-17T04:16:50.832Z,33.72
2022-12-17T04:19:38.257Z,33.80
2022-12-17T04:22:24.832Z,36.85
2022-12-17T04:25:11.628Z,36.17
2022-12-17T04:27:58.360Z,38.70
2022-12-17T04:30:44.868Z,40.55
2022-12-17T04:33:31.589Z,42.42
2022-12-17T04:36:18.451Z,41.83
2022-12-17T04:39:05.039Z,41.80
2022-12-17T04:41:51.297Z,44.33
2022-12-17T04:44:37.463Z,43.95
2022-12-17T04:47:23.414Z,41.05
2022-12-17T04:50:10.223Z,41.25
2022-12-17T04:52:56.365Z,44.95
2022-12-17T04:55:42.600Z,42.03
2022-12-17T04:58:28.683Z,42.95
2022-12-17T05:01:15.522Z,50.03
2022-12-17T05:04:01.918Z,41.97
2022-12-17T05:06:48.105Z,44.33
2022-12-17T05:09:34.187Z,42.45
2022-12-17T05:12:20.562Z,44.15
2022-12-17T05:15:06.523Z,47.20
2022-12-17T05:17:53.369Z,45.22
2022-12-17T05:20:39.559Z,41.28
2022-12-17T05:23:27.629Z,42.90
2022-12-17T05:26:25.866Z,41.58
2022-12-17T05:29:15.770Z,48.83
2022-12-17T05:32:02.916Z,44.55
2022-12-17T05:34:49.291Z,39.63
2022-12-17T05:37:35.243Z,39.25
2022-12-17T05:40:22.506Z,39.95
2022-12-17T05:43:20.202Z,43.22
2022-12-17T05:46:07.218Z,41.17
2022-12-17T05:48:54.946Z,40.40
2022-12-17T05:51:41.879Z,38.45
2022-12-17T05:54:28.261Z,46.85
2022-12-17T05:57:15.277Z,40.45
2022-12-17T06:00:02.171Z,43.60
2022-12-17T06:02:59.006Z,40.20
2022-12-17T06:05:45.740Z,40.72
2022-12-17T06:08:31.801Z,44.75
2022-12-17T06:11:19.506Z,43.08
2022-12-17T06:14:06.428Z,47.78
2022-12-17T06:16:53.137Z,39.72
2022-12-17T06:19:39.269Z,42.40
2022-12-17T06:22:29.999Z,40.83
2022-12-17T06:25:16.238Z,44.15
2022-12-17T06:28:02.449Z,40.25
2022-12-17T06:30:49.135Z,40.92
2022-12-17T06:33:36.196Z,41.25
2022-12-17T06:36:23.119Z,44.08
2022-12-17T06:39:09.552Z,44.15
2022-12-17T06:42:02.114Z,42.63
2022-12-17T06:44:50.936Z,41.25
2022-12-17T06:47:38.450Z,40.72
2022-12-17T06:50:25.028Z,40.28
2022-12-17T06:53:22.209Z,43.08
2022-12-17T06:56:09.567Z,38.88
2022-12-17T06:58:56.482Z,37.97
2022-12-17T07:01:43.290Z,39.72
2022-12-17T07:04:29.648Z,39.55
2022-12-17T07:07:15.858Z,39.15
2022-12-17T07:10:02.717Z,36.80
2022-12-17T07:12:49.574Z,37.03
2022-12-17T07:15:36.570Z,38.75
2022-12-17T07:18:23.455Z,38.33
2022-12-17T07:21:12.014Z,39.88
2022-12-17T07:23:58.552Z,37.97
2022-12-17T07:26:44.622Z,38.90
2022-12-17T07:29:30.593Z,37.60
2022-12-17T07:32:17.124Z,37.88
2022-12-17T07:35:03.360Z,37.13
2022-12-17T07:37:49.794Z,39.47
2022-12-17T07:40:36.570Z,40.92
2022-12-17T07:43:31.131Z,39.85
2022-12-17T07:46:18.372Z,39.65
2022-12-17T07:49:04.556Z,39.00
2022-12-17T07:51:51.370Z,41.65
2022-12-17T07:54:38.158Z,39.20
2022-12-17T07:57:24.873Z,38.90
2022-12-17T08:00:11.158Z,39.83
2022-12-17T08:02:57.692Z,39.90
2022-12-17T08:05:43.976Z,40.75
2022-12-17T08:08:33.204Z,39.40
2022-12-17T08:11:19.806Z,39.17
2022-12-17T08:14:05.800Z,37.47
2022-12-17T08:16:52.420Z,41.35
2022-12-17T08:19:39.004Z,41.92
2022-12-17T08:22:25.323Z,41.20
2022-12-17T08:25:11.657Z,42.92
2022-12-17T08:27:57.562Z,41.80
2022-12-17T08:30:44.262Z,43.30
2022-12-17T08:33:32.117Z,42.67
2022-12-17T08:36:18.878Z,41.60
2022-12-17T08:39:04.878Z,40.83
2022-12-17T08:41:54.456Z,42.20
2022-12-17T08:44:43.035Z,44.72
2022-12-17T08:47:29.526Z,40.30
2022-12-17T08:50:16.334Z,42.17
2022-12-17T08:53:03.170Z,42.90
2022-12-17T08:55:49.512Z,46.22
2022-12-17T08:58:36.250Z,46.03
2022-12-17T09:01:23.263Z,51.33
2022-12-17T09:04:10.142Z,58.58
2022-12-17T09:06:56.518Z,52.42
2022-12-17T09:09:42.679Z,46.10
2022-12-17T09:12:29.531Z,45.88
2022-12-17T09:15:16.102Z,45.10
2022-12-17T09:18:02.756Z,45.15
2022-12-17T09:20:49.324Z,44.85
2022-12-17T09:23:36.599Z,46.53
2022-12-17T09:26:23.580Z,48.70
2022-12-17T09:29:10.075Z,45.42
2022-12-17T09:31:56.638Z,50.40
2022-12-17T09:34:43.308Z,44.08
2022-12-17T09:37:29.489Z,49.33
2022-12-17T09:40:15.959Z,47.03
2022-12-17T09:43:12.887Z,50.92
2022-12-17T09:46:07.638Z,46.20
2022-12-17T09:49:26.853Z,45.75
2022-12-17T09:52:13.105Z,45.17
2022-12-17T09:55:03.504Z,44.08
2022-12-17T09:57:55.550Z,43.47
2022-12-17T10:00:45.926Z,42.58
2022-12-17T10:03:38.299Z,38.38
2022-12-17T10:06:32.244Z,40.58
2022-12-17T10:09:20.024Z,40.95
2022-12-17T10:12:06.524Z,41.42
2022-12-17T10:14:53.148Z,36.33
2022-12-17T10:17:43.347Z,33.47
2022-12-17T10:20:56.200Z,36.40
2022-12-17T10:23:53.160Z,35.25
2022-12-17T10:26:44.295Z,35.10
2022-12-17T10:29:36.322Z,36.58
2022-12-17T10:32:39.183Z,36.00
2022-12-17T10:35:42.155Z,35.03
2022-12-17T10:38:31.282Z,33.03
2022-12-17T10:41:17.593Z,34.78
2022-12-17T10:44:04.062Z,35.92
2022-12-17T10:46:52.802Z,37.13
2022-12-17T10:49:42.082Z,35.30
2022-12-17T10:52:49.585Z,35.97
2022-12-17T10:55:42.450Z,36.10
2022-12-17T10:58:34.365Z,35.70
2022-12-17T11:01:22.910Z,32.35
2022-12-17T11:04:10.662Z,36.10
2022-12-17T11:07:12.169Z,33.28
2022-12-17T11:10:09.422Z,28.60
2022-12-17T11:13:14.839Z,29.90
2022-12-17T11:16:16.694Z,27.20
2022-12-17T11:19:17.740Z,25.75
2022-12-17T11:22:13.215Z,27.67
2022-12-17T11:25:13.122Z,26.50
2022-12-17T11:28:06.191Z,26.77
2022-12-17T11:31:01.516Z,26.13
2022-12-17T11:34:00.654Z,26.05
2022-12-17T11:36:58.964Z,25.38
2022-12-17T11:40:12.027Z,17.42
2022-12-17T11:43:06.593Z,19.48
2022-12-17T11:46:14.842Z,17.90
2022-12-17T11:49:36.340Z,18.17
2022-12-17T11:52:40.151Z,11.07
2022-12-17T11:55:42.019Z,6.63
2022-12-17T11:58:41.149Z,4.60
2022-12-17T12:01:34.068Z,5.82
2022-12-17T12:04:38.487Z,3.85
2022-12-17T12:07:55.208Z,6.32
2022-12-17T12:10:51.688Z,5.60
2022-12-17T12:13:45.400Z,11.88
2022-12-17T12:16:53.411Z,10.13
2022-12-17T12:19:49.419Z,6.85
2022-12-17T12:23:05.186Z,12.40
2022-12-17T12:26:17.072Z,8.65
2022-12-17T12:29:21.111Z,6.85
2022-12-17T12:32:35.620Z,5.63
2022-12-17T12:35:23.254Z,3.10
2022-12-17T12:38:09.383Z,3.03
2022-12-17T12:41:05.711Z,2.88
2022-12-17T12:44:17.452Z,2.60
2022-12-17T12:47:16.836Z,4.10
2022-12-17T12:50:28.096Z,2.95
2022-12-17T12:53:16.304Z,3.05
2022-12-17T12:56:03.189Z,2.38
2022-12-17T12:58:51.867Z,2.50
2022-12-17T13:01:50.175Z,2.78
2022-12-17T13:04:56.181Z,3.00
2022-12-17T13:07:27.515Z,3.17
2022-12-17T13:09:58.098Z,3.22
2022-12-17T13:12:54.399Z,3.35
2022-12-17T13:15:36.302Z,3.65
2022-12-17T13:18:17.139Z,3.22
2022-12-17T13:20:55.691Z,4.03
2022-12-17T13:23:33.569Z,4.03
2022-12-17T13:26:14.974Z,3.25
2022-12-17T13:28:48.060Z,3.67
2022-12-17T13:31:21.854Z,3.85
2022-12-17T13:34:10.827Z,4.05
2022-12-17T13:37:01.673Z,3.85
2022-12-17T13:39:46.759Z,4.53
2022-12-17T13:42:27.034Z,4.13
2022-12-17T13:44:55.152Z,4.13
2022-12-17T13:47:30.851Z,6.07
2022-12-17T13:50:32.890Z,4.57
2022-12-17T13:52:49.492Z,4.55
2022-12-17T13:55:24.287Z,4.40
2022-12-17T13:57:53.654Z,3.78
2022-12-17T14:00:27.500Z,4.30
2022-12-17T14:05:42.528Z,3.97
2022-12-17T14:08:17.308Z,4.07
2022-12-17T14:10:52.883Z,3.95
2022-12-17T14:13:20.597Z,4.80
2022-12-17T14:15:51.454Z,3.83
2022-12-17T14:18:21.018Z,5.95
2022-12-17T14:20:56.836Z,3.85
2022-12-17T14:23:33.061Z,5.20
2022-12-17T14:26:01.513Z,4.35
2022-12-17T14:28:33.654Z,4.35
2022-12-17T14:31:27.745Z,5.28
2022-12-17T14:36:39.640Z,4.15
2022-12-17T14:39:19.642Z,4.75
2022-12-17T14:42:07.164Z,3.88
2022-12-17T14:44:35.414Z,4.90
2022-12-17T14:47:18.825Z,5.05
2022-12-17T14:49:58.692Z,4.90
2022-12-17T14:52:34.000Z,5.38
2022-12-17T14:55:02.731Z,5.38
2022-12-17T14:57:30.247Z,6.20
2022-12-17T14:59:57.767Z,5.47
2022-12-17T15:02:28.490Z,5.70
2022-12-17T15:05:02.195Z,5.78
2022-12-17T15:07:31.653Z,5.95
2022-12-17T15:09:59.692Z,7.20
2022-12-17T15:12:28.245Z,6.03
2022-12-17T15:14:55.775Z,6.85
2022-12-17T15:17:23.833Z,6.85
2022-12-17T15:19:56.108Z,7.05
2022-12-17T15:22:24.638Z,7.50
2022-12-17T15:24:52.712Z,6.85
2022-12-17T15:27:20.757Z,7.82
2022-12-17T15:29:48.626Z,7.53
2022-12-17T15:32:21.141Z,8.95
2022-12-17T15:34:49.074Z,8.45
2022-12-17T15:37:21.049Z,9.70
2022-12-17T15:39:51.960Z,10.00
2022-12-17T15:42:38.340Z,9.70
2022-12-17T15:45:07.120Z,9.32
2022-12-17T15:47:34.830Z,10.20
2022-12-17T15:50:03.940Z,10.38
2022-12-17T15:52:31.779Z,10.63
2022-12-17T15:55:00.898Z,10.35
2022-12-17T15:57:28.551Z,11.93
2022-12-17T15:59:56.002Z,11.70
2022-12-17T16:02:23.869Z,11.73
2022-12-17T16:04:52.796Z,13.05
2022-12-17T16:07:20.500Z,16.27
2022-12-17T16:09:51.399Z,19.17
2022-12-17T16:12:18.906Z,21.95
2022-12-17T16:14:46.417Z,23.85
2022-12-17T16:17:14.009Z,22.90
2022-12-17T16:19:41.482Z,24.30
2022-12-17T16:22:09.041Z,22.90
2022-12-17T16:24:36.634Z,22.95
2022-12-17T16:27:04.970Z,24.40
2022-12-17T16:29:32.833Z,23.77
2022-12-17T16:32:01.451Z,21.35
2022-12-17T16:34:29.453Z,24.00
2022-12-17T16:36:57.228Z,23.55
2022-12-17T16:39:24.808Z,26.33
2022-12-17T16:41:52.595Z,26.08
2022-12-17T16:44:24.395Z,27.10
2022-12-17T16:46:54.862Z,26.15
2022-12-17T16:49:24.459Z,26.73
2022-12-17T16:51:54.255Z,32.45
2022-12-17T16:54:27.292Z,28.80
2022-12-17T16:56:55.573Z,31.98
2022-12-17T16:59:23.671Z,35.85
2022-12-17T17:01:52.685Z,31.02
2022-12-17T17:04:23.049Z,29.40
2022-12-17T17:06:55.818Z,26.90
2022-12-17T17:09:25.490Z,29.00
2022-12-17T17:11:58.835Z,26.88
2022-12-17T17:14:27.515Z,27.58
2022-12-17T17:16:55.077Z,33.85
2022-12-17T17:19:23.083Z,32.72
2022-12-17T17:21:54.262Z,34.13
2022-12-17T17:24:25.533Z,32.50
2022-12-17T17:26:54.420Z,37.85
2022-12-17T17:29:22.501Z,36.10
2022-12-17T17:34:39.266Z,37.22
2022-12-17T17:37:07.206Z,34.67
2022-12-17T17:39:34.921Z,33.90
2022-12-17T17:42:03.210Z,35.78
2022-12-17T17:44:30.838Z,36.72
2022-12-17T17:46:58.615Z,36.20
2022-12-17T17:49:26.350Z,35.85
2022-12-17T17:52:12.268Z,32.97
2022-12-17T17:54:40.915Z,33.88
2022-12-17T17:57:09.954Z,36.45
2022-12-17T17:59:39.483Z,35.38
2022-12-17T18:02:08.941Z,34.13
2022-12-17T18:04:36.960Z,32.45
2022-12-17T18:09:52.745Z,31.75
2022-12-17T18:12:40.898Z,35.03
2022-12-17T18:15:18.010Z,30.40
2022-12-17T18:17:51.623Z,28.95
2022-12-17T18:20:19.304Z,34.10
2022-12-17T18:22:47.633Z,32.75
2022-12-17T18:25:16.439Z,27.50
2022-12-17T18:27:44.750Z,27.98
2022-12-17T18:30:12.870Z,30.52
2022-12-17T18:32:41.889Z,32.55
2022-12-17T18:35:10.428Z,30.60
2022-12-17T18:37:38.621Z,30.75
2022-12-17T18:40:07.386Z,31.08
2022-12-17T18:42:54.271Z,35.63
2022-12-17T18:45:22.218Z,32.47
2022-12-17T18:47:50.698Z,33.83
2022-12-17T18:50:18.348Z,34.53
2022-12-17T18:52:45.865Z,31.23
2022-12-17T18:55:13.363Z,33.88
2022-12-17T18:57:41.473Z,34.67
2022-12-17T19:00:09.985Z,31.45
2022-12-17T19:02:38.005Z,31.92
2022-12-17T19:05:05.850Z,29.58
2022-12-17T19:07:33.403Z,25.95
2022-12-17T19:10:00.990Z,36.47
2022-12-17T19:12:29.226Z,26.80
2022-12-17T19:14:56.750Z,32.00
2022-12-17T19:17:24.435Z,32.67
2022-12-17T19:19:51.930Z,31.92
2022-12-17T19:22:19.463Z,31.95
2022-12-17T19:24:47.149Z,29.55
2022-12-17T19:27:15.241Z,27.52
2022-12-17T19:29:47.630Z,31.77
2022-12-17T19:32:16.876Z,31.70
2022-12-17T19:34:44.936Z,28.63
2022-12-17T19:37:13.280Z,31.52
2022-12-17T19:39:41.252Z,32.35
2022-12-17T19:42:24.599Z,34.88
2022-12-17T19:44:54.346Z,35.85
2022-12-17T19:47:23.448Z,31.98
2022-12-17T19:49:51.569Z,31.90
2022-12-17T19:52:19.760Z,31.70
2022-12-17T19:54:49.712Z,29.55
2022-12-17T19:57:17.527Z,31.52
2022-12-17T19:59:45.194Z,29.33
2022-12-17T20:02:13.581Z,23.58
2022-12-17T20:04:41.654Z,25.92
2022-12-17T20:07:09.527Z,24.95
2022-12-17T20:09:37.121Z,25.27
2022-12-17T20:12:04.806Z,25.02
2022-12-17T20:14:34.311Z,30.63
2022-12-17T20:17:04.303Z,30.70
2022-12-17T20:19:33.403Z,32.10
2022-12-17T20:22:04.379Z,30.80
2022-12-17T20:24:32.760Z,30.50
2022-12-17T20:27:01.083Z,26.73
2022-12-17T20:29:29.611Z,29.90
2022-12-17T20:31:57.370Z,32.10
2022-12-17T20:34:26.164Z,34.97
2022-12-17T20:36:54.618Z,35.42
2022-12-17T20:39:27.282Z,35.88
2022-12-17T20:41:57.135Z,36.88
2022-12-17T20:44:24.935Z,42.15
2022-12-17T20:46:53.177Z,44.13
2022-12-17T20:49:20.888Z,37.63
2022-12-17T20:51:48.489Z,41.63
2022-12-17T20:54:16.119Z,37.83
2022-12-17T20:56:44.311Z,38.33
2022-12-17T20:59:18.084Z,40.08
2022-12-17T21:04:22.261Z,38.55
2022-12-17T21:06:50.502Z,40.47
2022-12-17T21:09:20.273Z,39.88
2022-12-17T21:11:48.648Z,39.33
2022-12-17T21:14:17.977Z,38.42
2022-12-17T21:16:46.486Z,40.28
2022-12-17T21:19:17.738Z,40.33
2022-12-17T21:21:46.091Z,43.38
2022-12-17T21:24:13.707Z,36.70
2022-12-17T21:26:44.334Z,39.28
2022-12-17T21:29:12.576Z,38.20
2022-12-17T21:31:47.485Z,38.17
2022-12-17T21:34:22.765Z,38.20
2022-12-17T21:36:51.541Z,38.85
2022-12-17T21:39:20.579Z,39.53
2022-12-17T21:42:09.332Z,36.13
2022-12-17T21:44:38.022Z,38.63
2022-12-17T21:47:05.839Z,35.35
2022-12-17T21:49:33.528Z,38.97
2022-12-17T21:52:02.077Z,38.25
2022-12-17T21:54:29.905Z,31.48
2022-12-17T21:56:58.011Z,34.60
2022-12-17T21:59:25.818Z,31.38
2022-12-17T22:01:54.345Z,33.67
2022-12-17T22:04:22.204Z,34.88
2022-12-17T22:06:53.977Z,30.88
2022-12-17T22:09:32.422Z,29.85
2022-12-17T22:12:26.431Z,38.15
2022-12-17T22:14:54.469Z,29.40
2022-12-17T22:17:22.655Z,32.85
2022-12-17T22:19:50.456Z,31.98
2022-12-17T22:22:18.054Z,34.55
2022-12-17T22:24:46.648Z,31.35
2022-12-17T22:27:14.858Z,34.58
2022-12-17T22:30:01.120Z,34.05
2022-12-17T22:32:47.372Z,32.75
2022-12-17T22:37:24.259Z,34.33
2022-12-17T22:41:45.993Z,34.70
2022-12-17T22:44:29.741Z,35.72
2022-12-17T22:44:40.585Z,34.40
2022-12-17T22:46:32.337Z,32.55
2022-12-17T22:49:00.504Z,33.65
2022-12-17T22:51:40.762Z,29.88
2022-12-17T22:54:12.256Z,33.83
2022-12-17T22:57:27.917Z,29.08
2022-12-17T22:59:30.078Z,28.55
2022-12-17T23:01:58.360Z,26.35
2022-12-17T23:04:26.147Z,35.03
2022-12-17T23:06:53.873Z,28.33
2022-12-17T23:09:21.439Z,29.80
2022-12-17T23:11:49.240Z,24.23
2022-12-17T23:14:17.880Z,23.15
2022-12-17T23:16:46.539Z,21.95
2022-12-17T23:19:14.617Z,20.02
2022-12-17T23:21:42.761Z,24.08
2022-12-17T23:24:10.363Z,25.08
2022-12-17T23:26:38.263Z,26.17
2022-12-17T23:29:08.541Z,25.42
2022-12-17T23:31:40.147Z,24.95
2022-12-17T23:34:08.822Z,24.02
2022-12-17T23:36:37.079Z,21.92
2022-12-17T23:39:05.440Z,20.95
2022-12-17T23:41:33.398Z,22.20
2022-12-17T23:44:01.789Z,22.40
2022-12-17T23:46:30.445Z,20.88
2022-12-17T23:48:58.910Z,21.65
2022-12-17T23:51:26.735Z,25.77
2022-12-17T23:53:54.475Z,21.83
2022-12-17T23:56:24.915Z,28.58
2022-12-17T23:58:57.831Z,31.95
